sensor_id;sensor_type;location;lat;lon;timestamp;pressure;altitude;pressure_sealevel;temperature;humidity
12664;BME280;6396;58.490;15.528;2023-04-25T00:01:15;99335.78;;;7.78;100.00
12664;BME280;6396;58.490;15.528;2023-04-25T00:03:43;99326.97;;;7.79;100.00
12664;BME280;6396;58.490;15.528;2023-04-25T00:06:17;99187.44;;;6.91;100.00
12664;BME280;6396;58.490;15.528;2023-04-25T00:08:44;99319.13;;;7.77;100.00
12664;BME280;6396;58.490;15.528;2023-04-25T00:11:17;99314.81;;;7.76;100.00
12664;BME280;6396;58.490;15.528;2023-04-25T00:13:43;99311.44;;;7.73;100.00
12664;BME280;6396;58.490;15.528;2023-04-25T00:16:26;99378.06;;;7.70;100.00
12664;BME280;6396;58.490;15.528;2023-04-25T00:18:55;99203.63;;;7.04;100.00
12664;BME280;6396;58.490;15.528;2023-04-25T00:21:41;99308.16;;;7.66;100.00
12664;BME280;6396;58.490;15.528;2023-04-25T00:24:08;99305.56;;;7.65;100.00
12664;BME280;6396;58.490;15.528;2023-04-25T00:26:42;99223.28;;;7.17;100.00
12664;BME280;6396;58.490;15.528;2023-04-25T00:29:08;99285.81;;;7.55;100.00
12664;BME280;6396;58.490;15.528;2023-04-25T00:31:47;99316.84;;;7.68;100.00
12664;BME280;6396;58.490;15.528;2023-04-25T00:34:16;99310.03;;;7.63;100.00
12664;BME280;6396;58.490;15.528;2023-04-25T00:36:43;99091.16;;;6.19;100.00
12664;BME280;6396;58.490;15.528;2023-04-25T00:39:10;99311.91;;;7.59;100.00
12664;BME280;6396;58.490;15.528;2023-04-25T00:41:40;99314.88;;;7.50;100.00
12664;BME280;6396;58.490;15.528;2023-04-25T00:44:08;99314.38;;;7.64;100.00
12664;BME280;6396;58.490;15.528;2023-04-25T00:46:42;99313.47;;;7.65;100.00
12664;BME280;6396;58.490;15.528;2023-04-25T00:49:09;99315.13;;;7.67;100.00
12664;BME280;6396;58.490;15.528;2023-04-25T00:51:43;99310.84;;;7.65;100.00
12664;BME280;6396;58.490;15.528;2023-04-25T00:54:11;99310.94;;;7.62;100.00
12664;BME280;6396;58.490;15.528;2023-04-25T00:56:38;99197.34;;;6.83;100.00
12664;BME280;6396;58.490;15.528;2023-04-25T00:59:05;99317.22;;;7.58;100.00
12664;BME280;6396;58.490;15.528;2023-04-25T01:01:33;99318.34;;;7.51;100.00
12664;BME280;6396;58.490;15.528;2023-04-25T01:04:00;99311.31;;;7.51;100.00
12664;BME280;6396;58.490;15.528;2023-04-25T01:06:27;99174.34;;;6.65;100.00
12664;BME280;6396;58.490;15.528;2023-04-25T01:08:56;99291.00;;;7.32;100.00
12664;BME280;6396;58.490;15.528;2023-04-25T01:11:23;99308.69;;;7.51;100.00
12664;BME280;6396;58.490;15.528;2023-04-25T01:13:50;99273.44;;;7.34;100.00
12664;BME280;6396;58.490;15.528;2023-04-25T01:16:18;99181.28;;;6.67;100.00
12664;BME280;6396;58.490;15.528;2023-04-25T01:18:45;99300.75;;;7.53;100.00
12664;BME280;6396;58.490;15.528;2023-04-25T01:21:15;99259.88;;;7.21;100.00
12664;BME280;6396;58.490;15.528;2023-04-25T01:23:42;99291.06;;;7.55;100.00
12664;BME280;6396;58.490;15.528;2023-04-25T01:26:11;99133.88;;;6.47;100.00
12664;BME280;6396;58.490;15.528;2023-04-25T01:28:39;99287.75;;;7.50;100.00
12664;BME280;6396;58.490;15.528;2023-04-25T01:31:07;99245.94;;;7.19;100.00
12664;BME280;6396;58.490;15.528;2023-04-25T01:33:34;99288.50;;;7.53;100.00
12664;BME280;6396;58.490;15.528;2023-04-25T01:36:04;99178.34;;;6.76;100.00
12664;BME280;6396;58.490;15.528;2023-04-25T01:38:32;99260.34;;;7.32;100.00
12664;BME280;6396;58.490;15.528;2023-04-25T01:40:59;99294.63;;;7.52;100.00
12664;BME280;6396;58.490;15.528;2023-04-25T01:43:26;98870.09;;;4.96;100.00
12664;BME280;6396;58.490;15.528;2023-04-25T01:45:55;99289.44;;;7.51;100.00
12664;BME280;6396;58.490;15.528;2023-04-25T01:48:23;99244.41;;;7.14;100.00
12664;BME280;6396;58.490;15.528;2023-04-25T01:50:49;99287.06;;;7.45;100.00
12664;BME280;6396;58.490;15.528;2023-04-25T01:53:27;99282.81;;;7.41;100.00
12664;BME280;6396;58.490;15.528;2023-04-25T01:55:58;99019.66;;;5.91;100.00
12664;BME280;6396;58.490;15.528;2023-04-25T01:58:24;99166.78;;;6.82;100.00
12664;BME280;6396;58.490;15.528;2023-04-25T02:00:51;99209.38;;;7.15;100.00
12664;BME280;6396;58.490;15.528;2023-04-25T02:03:18;99252.91;;;7.45;100.00
12664;BME280;6396;58.490;15.528;2023-04-25T02:05:45;99251.88;;;7.49;100.00
12664;BME280;6396;58.490;15.528;2023-04-25T02:08:12;99249.59;;;7.40;100.00
12664;BME280;6396;58.490;15.528;2023-04-25T02:10:38;99257.78;;;7.31;100.00
12664;BME280;6396;58.490;15.528;2023-04-25T02:13:07;99003.75;;;5.69;100.00
12664;BME280;6396;58.490;15.528;2023-04-25T02:15:33;99244.06;;;7.23;100.00
12664;BME280;6396;58.490;15.528;2023-04-25T02:18:01;99260.41;;;7.31;100.00
12664;BME280;6396;58.490;15.528;2023-04-25T02:20:28;99155.47;;;6.55;100.00
12664;BME280;6396;58.490;15.528;2023-04-25T02:22:55;99273.34;;;7.11;100.00
12664;BME280;6396;58.490;15.528;2023-04-25T02:25:22;99212.53;;;7.00;100.00
12664;BME280;6396;58.490;15.528;2023-04-25T02:28:04;99249.91;;;7.31;100.00
12664;BME280;6396;58.490;15.528;2023-04-25T02:30:32;99095.50;;;6.20;100.00
12664;BME280;6396;58.490;15.528;2023-04-25T02:33:05;99252.53;;;7.31;100.00
12664;BME280;6396;58.490;15.528;2023-04-25T02:35:32;99215.19;;;6.98;100.00
12664;BME280;6396;58.490;15.528;2023-04-25T02:38:01;99244.66;;;7.31;100.00
12664;BME280;6396;58.490;15.528;2023-04-25T02:40:28;99227.03;;;7.10;100.00
12664;BME280;6396;58.490;15.528;2023-04-25T02:42:56;99094.44;;;6.26;100.00
12664;BME280;6396;58.490;15.528;2023-04-25T02:45:23;99240.03;;;7.13;100.00
12664;BME280;6396;58.490;15.528;2023-04-25T02:48:02;99093.41;;;6.30;100.00
12664;BME280;6396;58.490;15.528;2023-04-25T02:50:28;99249.91;;;7.06;100.00
12664;BME280;6396;58.490;15.528;2023-04-25T02:52:57;98817.34;;;4.55;100.00
12664;BME280;6396;58.490;15.528;2023-04-25T02:55:24;99269.09;;;7.08;100.00
12664;BME280;6396;58.490;15.528;2023-04-25T02:58:00;99244.22;;;7.18;100.00
12664;BME280;6396;58.490;15.528;2023-04-25T03:00:28;99155.38;;;6.83;100.00
12664;BME280;6396;58.490;15.528;2023-04-25T03:02:54;99166.88;;;6.79;100.00
12664;BME280;6396;58.490;15.528;2023-04-25T03:05:22;99218.72;;;7.22;100.00
12664;BME280;6396;58.490;15.528;2023-04-25T03:07:50;99211.63;;;7.25;100.00
12664;BME280;6396;58.490;15.528;2023-04-25T03:10:17;99030.75;;;6.24;100.00
12664;BME280;6396;58.490;15.528;2023-04-25T03:12:51;99148.63;;;7.01;100.00
12664;BME280;6396;58.490;15.528;2023-04-25T03:15:18;99202.75;;;7.28;100.00
12664;BME280;6396;58.490;15.528;2023-04-25T03:17:57;99204.13;;;7.15;100.00
12664;BME280;6396;58.490;15.528;2023-04-25T03:20:25;99199.13;;;7.07;100.00
12664;BME280;6396;58.490;15.528;2023-04-25T03:22:52;99185.94;;;7.09;100.00
12664;BME280;6396;58.490;15.528;2023-04-25T03:25:19;99195.91;;;7.24;100.00
12664;BME280;6396;58.490;15.528;2023-04-25T03:27:46;99160.13;;;6.97;100.00
12664;BME280;6396;58.490;15.528;2023-04-25T03:30:13;99187.41;;;7.17;100.00
12664;BME280;6396;58.490;15.528;2023-04-25T03:32:40;99199.88;;;7.11;100.00
12664;BME280;6396;58.490;15.528;2023-04-25T03:35:07;99036.13;;;6.19;100.00
12664;BME280;6396;58.490;15.528;2023-04-25T03:37:44;99208.66;;;7.10;100.00
12664;BME280;6396;58.490;15.528;2023-04-25T03:40:12;99170.81;;;6.92;100.00
12664;BME280;6396;58.490;15.528;2023-04-25T03:42:51;99136.31;;;6.53;100.00
12664;BME280;6396;58.490;15.528;2023-04-25T03:45:17;99213.97;;;7.08;100.00
12664;BME280;6396;58.490;15.528;2023-04-25T03:47:45;99202.78;;;7.03;100.00
12664;BME280;6396;58.490;15.528;2023-04-25T03:50:12;99094.09;;;6.36;100.00
12664;BME280;6396;58.490;15.528;2023-04-25T03:52:46;99202.28;;;6.92;100.00
12664;BME280;6396;58.490;15.528;2023-04-25T03:55:12;99206.56;;;6.95;100.00
12664;BME280;6396;58.490;15.528;2023-04-25T03:57:40;99126.63;;;6.55;100.00
12664;BME280;6396;58.490;15.528;2023-04-25T04:00:07;99185.91;;;6.86;100.00
12664;BME280;6396;58.490;15.528;2023-04-25T04:02:36;99148.56;;;6.77;100.00
12664;BME280;6396;58.490;15.528;2023-04-25T04:05:04;99144.63;;;6.66;100.00
12664;BME280;6396;58.490;15.528;2023-04-25T04:07:39;99182.06;;;6.96;100.00
12664;BME280;6396;58.490;15.528;2023-04-25T04:10:10;99191.63;;;6.97;100.00
12664;BME280;6396;58.490;15.528;2023-04-25T04:12:40;99190.66;;;6.99;100.00
12664;BME280;6396;58.490;15.528;2023-04-25T04:15:07;99247.63;;;6.96;100.00
12664;BME280;6396;58.490;15.528;2023-04-25T04:17:36;99152.13;;;6.76;100.00
12664;BME280;6396;58.490;15.528;2023-04-25T04:20:04;99210.03;;;6.95;100.00
12664;BME280;6396;58.490;15.528;2023-04-25T04:22:36;99197.72;;;6.97;100.00
12664;BME280;6396;58.490;15.528;2023-04-25T04:25:03;99200.31;;;6.99;100.00
12664;BME280;6396;58.490;15.528;2023-04-25T04:27:33;99192.53;;;6.96;100.00
12664;BME280;6396;58.490;15.528;2023-04-25T04:29:59;99195.38;;;6.90;100.00
12664;BME280;6396;58.490;15.528;2023-04-25T04:32:28;99157.88;;;6.35;100.00
12664;BME280;6396;58.490;15.528;2023-04-25T04:34:55;99211.81;;;6.95;100.00
12664;BME280;6396;58.490;15.528;2023-04-25T04:37:23;99211.03;;;6.91;100.00
12664;BME280;6396;58.490;15.528;2023-04-25T04:39:50;99070.69;;;6.04;100.00
12664;BME280;6396;58.490;15.528;2023-04-25T04:42:18;99212.84;;;6.91;100.00
12664;BME280;6396;58.490;15.528;2023-04-25T04:44:47;99019.34;;;5.72;100.00
12664;BME280;6396;58.490;15.528;2023-04-25T04:47:47;99208.00;;;6.78;100.00
12664;BME280;6396;58.490;15.528;2023-04-25T04:50:15;98924.28;;;4.91;100.00
12664;BME280;6396;58.490;15.528;2023-04-25T04:52:42;99208.91;;;6.77;100.00
12664;BME280;6396;58.490;15.528;2023-04-25T04:55:09;99232.19;;;6.87;100.00
12664;BME280;6396;58.490;15.528;2023-04-25T04:57:44;99114.94;;;6.39;100.00
12664;BME280;6396;58.490;15.528;2023-04-25T05:00:14;99200.84;;;6.84;100.00
12664;BME280;6396;58.490;15.528;2023-04-25T05:02:51;99030.00;;;5.94;100.00
12664;BME280;6396;58.490;15.528;2023-04-25T05:05:17;99236.09;;;7.01;100.00
12664;BME280;6396;58.490;15.528;2023-04-25T05:07:45;99078.56;;;6.30;100.00
12664;BME280;6396;58.490;15.528;2023-04-25T05:10:12;99145.19;;;6.74;100.00
12664;BME280;6396;58.490;15.528;2023-04-25T05:12:40;99139.63;;;6.58;100.00
12664;BME280;6396;58.490;15.528;2023-04-25T05:15:07;99144.63;;;6.66;100.00
12664;BME280;6396;58.490;15.528;2023-04-25T05:17:37;99202.44;;;6.88;100.00
12664;BME280;6396;58.490;15.528;2023-04-25T05:20:06;99194.44;;;7.17;100.00
12664;BME280;6396;58.490;15.528;2023-04-25T05:22:35;99194.53;;;7.14;100.00
12664;BME280;6396;58.490;15.528;2023-04-25T05:25:02;99180.06;;;7.02;100.00
12664;BME280;6396;58.490;15.528;2023-04-25T05:27:45;99090.63;;;6.60;100.00
12664;BME280;6396;58.490;15.528;2023-04-25T05:30:12;99099.28;;;6.62;100.00
12664;BME280;6396;58.490;15.528;2023-04-25T05:32:43;99171.63;;;6.94;100.00
12664;BME280;6396;58.490;15.528;2023-04-25T05:35:10;98943.28;;;5.51;100.00
12664;BME280;6396;58.490;15.528;2023-04-25T05:37:39;99186.78;;;6.85;100.00
12664;BME280;6396;58.490;15.528;2023-04-25T05:40:07;99247.06;;;7.12;100.00
12664;BME280;6396;58.490;15.528;2023-04-25T05:42:35;99201.91;;;7.03;100.00
12664;BME280;6396;58.490;15.528;2023-04-25T05:45:02;99201.59;;;7.12;100.00
12664;BME280;6396;58.490;15.528;2023-04-25T05:47:36;99199.03;;;7.10;100.00
12664;BME280;6396;58.490;15.528;2023-04-25T05:50:07;99201.25;;;7.21;100.00
12664;BME280;6396;58.490;15.528;2023-04-25T05:52:34;99173.00;;;7.04;100.00
12664;BME280;6396;58.490;15.528;2023-04-25T05:55:01;99166.50;;;6.90;100.00
12664;BME280;6396;58.490;15.528;2023-04-25T05:57:28;99202.06;;;7.23;100.00
12664;BME280;6396;58.490;15.528;2023-04-25T05:59:57;99202.56;;;7.34;100.00
12664;BME280;6396;58.490;15.528;2023-04-25T06:02:24;99104.91;;;6.76;100.00
12664;BME280;6396;58.490;15.528;2023-04-25T06:04:51;99156.31;;;7.07;100.00
12664;BME280;6396;58.490;15.528;2023-04-25T06:07:22;99206.88;;;7.35;100.00
12664;BME280;6396;58.490;15.528;2023-04-25T06:09:49;99203.63;;;7.28;100.00
12664;BME280;6396;58.490;15.528;2023-04-25T06:12:18;99085.94;;;6.44;100.00
12664;BME280;6396;58.490;15.528;2023-04-25T06:14:45;99198.53;;;7.24;100.00
12664;BME280;6396;58.490;15.528;2023-04-25T06:17:13;99200.84;;;7.33;100.00
12664;BME280;6396;58.490;15.528;2023-04-25T06:19:40;99201.38;;;7.18;100.00
12664;BME280;6396;58.490;15.528;2023-04-25T06:22:07;99198.25;;;7.31;100.00
12664;BME280;6396;58.490;15.528;2023-04-25T06:24:35;99188.50;;;7.35;100.00
12664;BME280;6396;58.490;15.528;2023-04-25T06:27:05;98634.28;;;4.09;100.00
12664;BME280;6396;58.490;15.528;2023-04-25T06:29:32;99138.72;;;7.09;100.00
12664;BME280;6396;58.490;15.528;2023-04-25T06:32:04;99187.09;;;7.49;100.00
12664;BME280;6396;58.490;15.528;2023-04-25T06:34:31;99190.44;;;7.30;100.00
12664;BME280;6396;58.490;15.528;2023-04-25T06:36:58;99195.44;;;7.60;100.00
12664;BME280;6396;58.490;15.528;2023-04-25T06:39:25;99195.16;;;7.45;100.00
12664;BME280;6396;58.490;15.528;2023-04-25T06:41:53;99087.94;;;6.87;100.00
12664;BME280;6396;58.490;15.528;2023-04-25T06:44:20;99192.69;;;7.40;100.00
12664;BME280;6396;58.490;15.528;2023-04-25T06:46:48;99179.28;;;7.48;100.00
12664;BME280;6396;58.490;15.528;2023-04-25T06:49:21;99145.66;;;7.34;100.00
12664;BME280;6396;58.490;15.528;2023-04-25T06:51:48;99164.84;;;7.36;100.00
12664;BME280;6396;58.490;15.528;2023-04-25T06:54:14;99171.88;;;7.59;100.00
12664;BME280;6396;58.490;15.528;2023-04-25T06:56:41;99186.56;;;7.63;100.00
12664;BME280;6396;58.490;15.528;2023-04-25T06:59:10;99175.25;;;7.62;100.00
12664;BME280;6396;58.490;15.528;2023-04-25T07:01:37;99184.06;;;7.60;100.00
12664;BME280;6396;58.490;15.528;2023-04-25T07:04:13;99046.34;;;6.76;100.00
12664;BME280;6396;58.490;15.528;2023-04-25T07:06:39;99043.84;;;6.73;100.00
12664;BME280;6396;58.490;15.528;2023-04-25T07:09:09;99147.41;;;7.34;100.00
12664;BME280;6396;58.490;15.528;2023-04-25T07:11:36;99064.19;;;6.90;100.00
12664;BME280;6396;58.490;15.528;2023-04-25T07:14:11;99184.41;;;7.51;100.00
12664;BME280;6396;58.490;15.528;2023-04-25T07:16:38;99183.00;;;7.65;100.00
12664;BME280;6396;58.490;15.528;2023-04-25T07:19:05;99066.00;;;6.89;100.00
12664;BME280;6396;58.490;15.528;2023-04-25T07:21:31;99195.25;;;7.65;100.00
12664;BME280;6396;58.490;15.528;2023-04-25T07:24:00;99198.28;;;7.54;100.00
12664;BME280;6396;58.490;15.528;2023-04-25T07:26:27;99030.78;;;6.71;100.00
12664;BME280;6396;58.490;15.528;2023-04-25T07:28:54;98787.66;;;5.36;100.00
12664;BME280;6396;58.490;15.528;2023-04-25T07:31:23;99182.53;;;7.77;100.00
12664;BME280;6396;58.490;15.528;2023-04-25T07:33:54;99180.50;;;7.84;100.00
12664;BME280;6396;58.490;15.528;2023-04-25T07:36:21;99155.97;;;7.62;100.00
12664;BME280;6396;58.490;15.528;2023-04-25T07:38:50;99135.19;;;7.56;100.00
12664;BME280;6396;58.490;15.528;2023-04-25T07:41:16;99180.34;;;7.88;100.00
12664;BME280;6396;58.490;15.528;2023-04-25T07:43:56;99170.66;;;7.90;100.00
12664;BME280;6396;58.490;15.528;2023-04-25T07:46:24;99128.09;;;7.81;100.00
12664;BME280;6396;58.490;15.528;2023-04-25T07:49:02;99151.56;;;8.07;100.00
12664;BME280;6396;58.490;15.528;2023-04-25T07:51:29;99039.19;;;7.49;100.00
12664;BME280;6396;58.490;15.528;2023-04-25T07:53:56;99182.84;;;8.36;100.00
12664;BME280;6396;58.490;15.528;2023-04-25T07:56:24;99094.63;;;7.86;100.00
12664;BME280;6396;58.490;15.528;2023-04-25T07:59:02;99190.00;;;8.54;100.00
12664;BME280;6396;58.490;15.528;2023-04-25T08:01:31;99120.16;;;8.04;100.00
12664;BME280;6396;58.490;15.528;2023-04-25T08:04:03;99198.94;;;8.50;100.00
12664;BME280;6396;58.490;15.528;2023-04-25T08:06:30;99200.78;;;8.48;100.00
12664;BME280;6396;58.490;15.528;2023-04-25T08:09:14;99210.75;;;8.62;100.00
12664;BME280;6396;58.490;15.528;2023-04-25T08:11:42;99029.31;;;7.55;100.00
12664;BME280;6396;58.490;15.528;2023-04-25T08:14:11;99045.69;;;7.62;100.00
12664;BME280;6396;58.490;15.528;2023-04-25T08:16:39;99205.84;;;8.53;100.00
12664;BME280;6396;58.490;15.528;2023-04-25T08:19:09;99204.44;;;8.44;100.00
12664;BME280;6396;58.490;15.528;2023-04-25T08:21:36;99157.03;;;8.24;100.00
12664;BME280;6396;58.490;15.528;2023-04-25T08:24:10;99205.84;;;8.53;100.00
12664;BME280;6396;58.490;15.528;2023-04-25T08:26:37;98999.13;;;7.22;100.00
12664;BME280;6396;58.490;15.528;2023-04-25T08:29:06;99200.78;;;8.48;100.00
12664;BME280;6396;58.490;15.528;2023-04-25T08:31:32;99213.25;;;8.43;100.00
12664;BME280;6396;58.490;15.528;2023-04-25T08:34:08;99165.28;;;8.15;100.00
12664;BME280;6396;58.490;15.528;2023-04-25T08:36:35;99171.22;;;8.20;100.00
12664;BME280;6396;58.490;15.528;2023-04-25T08:39:04;99234.25;;;8.45;100.00
12664;BME280;6396;58.490;15.528;2023-04-25T08:41:31;99187.28;;;8.13;100.00
12664;BME280;6396;58.490;15.528;2023-04-25T08:43:59;99164.25;;;7.98;100.00
12664;BME280;6396;58.490;15.528;2023-04-25T08:46:27;99156.72;;;8.10;100.00
12664;BME280;6396;58.490;15.528;2023-04-25T08:49:01;99219.97;;;8.50;100.00
12664;BME280;6396;58.490;15.528;2023-04-25T08:51:31;99217.22;;;8.53;100.00
12664;BME280;6396;58.490;15.528;2023-04-25T08:54:10;99223.59;;;8.48;100.00
12664;BME280;6396;58.490;15.528;2023-04-25T08:56:38;99219.72;;;8.56;100.00
12664;BME280;6396;58.490;15.528;2023-04-25T08:59:09;99165.56;;;8.31;100.00
12664;BME280;6396;58.490;15.528;2023-04-25T09:01:36;99153.84;;;8.16;100.00
12664;BME280;6396;58.490;15.528;2023-04-25T09:04:03;99225.28;;;8.70;100.00
12664;BME280;6396;58.490;15.528;2023-04-25T09:06:32;99175.59;;;8.43;100.00
12664;BME280;6396;58.490;15.528;2023-04-25T09:09:05;99222.34;;;8.78;100.00
12664;BME280;6396;58.490;15.528;2023-04-25T09:11:34;99158.56;;;8.51;100.00
12664;BME280;6396;58.490;15.528;2023-04-25T09:14:12;99217.59;;;9.08;100.00
12664;BME280;6396;58.490;15.528;2023-04-25T09:16:59;99216.19;;;9.19;100.00
12664;BME280;6396;58.490;15.528;2023-04-25T09:19:29;99261.69;;;9.23;100.00
12664;BME280;6396;58.490;15.528;2023-04-25T09:21:59;99217.84;;;9.22;100.00
12664;BME280;6396;58.490;15.528;2023-04-25T09:24:37;99219.47;;;9.24;100.00
12664;BME280;6396;58.490;15.528;2023-04-25T09:27:05;99218.88;;;9.38;100.00
12664;BME280;6396;58.490;15.528;2023-04-25T09:29:34;99170.69;;;9.16;100.00
12664;BME280;6396;58.490;15.528;2023-04-25T09:32:15;99220.13;;;9.49;100.00
12664;BME280;6396;58.490;15.528;2023-04-25T09:35:03;99225.19;;;9.54;100.00
12664;BME280;6396;58.490;15.528;2023-04-25T09:37:34;99227.75;;;9.55;100.00
12664;BME280;6396;58.490;15.528;2023-04-25T09:40:05;99185.06;;;9.09;100.00
12664;BME280;6396;58.490;15.528;2023-04-25T09:42:34;99218.53;;;9.65;100.00
12664;BME280;6396;58.490;15.528;2023-04-25T09:45:03;99232.34;;;9.70;100.00
12664;BME280;6396;58.490;15.528;2023-04-25T09:47:31;99178.13;;;9.46;100.00
12664;BME280;6396;58.490;15.528;2023-04-25T09:49:59;99227.88;;;9.72;100.00
12664;BME280;6396;58.490;15.528;2023-04-25T09:52:25;98979.72;;;8.31;100.00
12664;BME280;6396;58.490;15.528;2023-04-25T09:54:54;99150.44;;;8.97;100.00
12664;BME280;6396;58.490;15.528;2023-04-25T09:57:22;99228.66;;;9.74;100.00
12664;BME280;6396;58.490;15.528;2023-04-25T10:00:12;99225.97;;;9.76;100.00
12664;BME280;6396;58.490;15.528;2023-04-25T10:02:42;99222.22;;;9.80;100.00
12664;BME280;6396;58.490;15.528;2023-04-25T10:05:10;99057.69;;;8.72;100.00
12664;BME280;6396;58.490;15.528;2023-04-25T10:07:38;99191.47;;;9.62;100.00
12664;BME280;6396;58.490;15.528;2023-04-25T10:10:07;99156.19;;;9.26;100.00
12664;BME280;6396;58.490;15.528;2023-04-25T10:12:39;99227.66;;;9.77;100.00
12664;BME280;6396;58.490;15.528;2023-04-25T10:15:09;99241.78;;;9.76;100.00
12664;BME280;6396;58.490;15.528;2023-04-25T10:17:39;99201.00;;;9.64;100.00
12664;BME280;6396;58.490;15.528;2023-04-25T10:20:07;99124.59;;;9.26;100.00
12664;BME280;6396;58.490;15.528;2023-04-25T10:22:38;99117.94;;;9.37;100.00
12664;BME280;6396;58.490;15.528;2023-04-25T10:25:08;99189.16;;;9.73;100.00
12664;BME280;6396;58.490;15.528;2023-04-25T10:27:35;99221.81;;;9.89;100.00
12664;BME280;6396;58.490;15.528;2023-04-25T10:30:09;99194.25;;;9.96;100.00
12664;BME280;6396;58.490;15.528;2023-04-25T10:32:50;99127.34;;;9.43;100.00
12664;BME280;6396;58.490;15.528;2023-04-25T10:35:18;99122.84;;;9.45;100.00
12664;BME280;6396;58.490;15.528;2023-04-25T10:37:59;99100.34;;;9.38;100.00
12664;BME280;6396;58.490;15.528;2023-04-25T10:40:28;99121.38;;;9.58;100.00
12664;BME280;6396;58.490;15.528;2023-04-25T10:46:00;99111.97;;;9.52;100.00
12664;BME280;6396;58.490;15.528;2023-04-25T10:48:27;99078.72;;;9.31;100.00
12664;BME280;6396;58.490;15.528;2023-04-25T10:51:07;99207.44;;;9.77;100.00
12664;BME280;6396;58.490;15.528;2023-04-25T10:53:43;99212.13;;;10.08;100.00
12664;BME280;6396;58.490;15.528;2023-04-25T10:56:16;99011.72;;;8.99;100.00
12664;BME280;6396;58.490;15.528;2023-04-25T10:59:04;99212.94;;;10.10;100.00
12664;BME280;6396;58.490;15.528;2023-04-25T11:01:36;99096.38;;;9.48;100.00
12664;BME280;6396;58.490;15.528;2023-04-25T11:04:03;99245.03;;;10.20;100.00
12664;BME280;6396;58.490;15.528;2023-04-25T11:06:37;99245.53;;;10.28;100.00
12664;BME280;6396;58.490;15.528;2023-04-25T11:09:11;99166.63;;;9.86;100.00
12664;BME280;6396;58.490;15.528;2023-04-25T11:11:40;99191.19;;;10.05;100.00
12664;BME280;6396;58.490;15.528;2023-04-25T11:14:07;99217.88;;;10.18;100.00
12664;BME280;6396;58.490;15.528;2023-04-25T11:16:34;99200.41;;;10.15;100.00
12664;BME280;6396;58.490;15.528;2023-04-25T11:19:02;98950.56;;;8.56;100.00
12664;BME280;6396;58.490;15.528;2023-04-25T11:21:30;99292.94;;;10.29;100.00
12664;BME280;6396;58.490;15.528;2023-04-25T11:24:05;98619.72;;;6.56;100.00
12664;BME280;6396;58.490;15.528;2023-04-25T11:26:33;99133.75;;;9.93;100.00
12664;BME280;6396;58.490;15.528;2023-04-25T11:29:14;99152.06;;;9.96;100.00
12664;BME280;6396;58.490;15.528;2023-04-25T11:31:43;98830.47;;;8.18;100.00
12664;BME280;6396;58.490;15.528;2023-04-25T11:34:17;99233.44;;;10.59;100.00
12664;BME280;6396;58.490;15.528;2023-04-25T11:36:45;99254.91;;;10.70;100.00
12664;BME280;6396;58.490;15.528;2023-04-25T11:39:20;98723.09;;;7.13;100.00
12664;BME280;6396;58.490;15.528;2023-04-25T11:41:47;98845.78;;;8.47;100.00
12664;BME280;6396;58.490;15.528;2023-04-25T11:44:33;99133.66;;;10.15;100.00
12664;BME280;6396;58.490;15.528;2023-04-25T11:47:00;98675.88;;;6.93;100.00
12664;BME280;6396;58.490;15.528;2023-04-25T11:49:48;99230.13;;;10.73;100.00
12664;BME280;6396;58.490;15.528;2023-04-25T11:52:16;98601.75;;;7.08;100.00
12664;BME280;6396;58.490;15.528;2023-04-25T11:54:44;98973.88;;;9.39;100.00
12664;BME280;6396;58.490;15.528;2023-04-25T11:57:12;99088.19;;;9.72;100.00
12664;BME280;6396;58.490;15.528;2023-04-25T11:59:47;98948.06;;;8.73;100.00
12664;BME280;6396;58.490;15.528;2023-04-25T12:02:24;98653.91;;;7.34;100.00
12664;BME280;6396;58.490;15.528;2023-04-25T12:04:52;98783.63;;;8.27;100.00
12664;BME280;6396;58.490;15.528;2023-04-25T12:07:19;98948.69;;;9.34;100.00
12664;BME280;6396;58.490;15.528;2023-04-25T12:09:51;98661.25;;;7.46;100.00
12664;BME280;6396;58.490;15.528;2023-04-25T12:12:19;98910.88;;;8.99;100.00
12664;BME280;6396;58.490;15.528;2023-04-25T12:14:55;98633.16;;;7.48;100.00
12664;BME280;6396;58.490;15.528;2023-04-25T12:17:28;98705.47;;;7.55;100.00
12664;BME280;6396;58.490;15.528;2023-04-25T12:20:12;99235.69;;;11.02;100.00
12664;BME280;6396;58.490;15.528;2023-04-25T12:22:41;99233.13;;;11.01;100.00
12664;BME280;6396;58.490;15.528;2023-04-25T12:25:34;99217.34;;;10.99;100.00
12664;BME280;6396;58.490;15.528;2023-04-25T12:28:14;98660.25;;;7.10;100.00
12664;BME280;6396;58.490;15.528;2023-04-25T12:30:57;99162.34;;;10.73;100.00
12664;BME280;6396;58.490;15.528;2023-04-25T12:33:33;98973.72;;;9.42;100.00
12664;BME280;6396;58.490;15.528;2023-04-25T12:36:01;99135.59;;;10.28;100.00
12664;BME280;6396;58.490;15.528;2023-04-25T12:38:46;98627.53;;;6.98;100.00
12664;BME280;6396;58.490;15.528;2023-04-25T12:41:15;98608.53;;;6.73;100.00
12664;BME280;6396;58.490;15.528;2023-04-25T12:43:48;98804.16;;;7.99;100.00
12664;BME280;6396;58.490;15.528;2023-04-25T12:46:16;98597.28;;;7.10;100.00
12664;BME280;6396;58.490;15.528;2023-04-25T12:48:46;99216.44;;;10.48;100.00
12664;BME280;6396;58.490;15.528;2023-04-25T12:51:13;98744.88;;;7.73;100.00
12664;BME280;6396;58.490;15.528;2023-04-25T12:53:42;99158.75;;;10.57;100.00
12664;BME280;6396;58.490;15.528;2023-04-25T12:56:10;98654.41;;;7.42;100.00
12664;BME280;6396;58.490;15.528;2023-04-25T12:58:44;99056.16;;;9.98;100.00
12664;BME280;6396;58.490;15.528;2023-04-25T13:01:10;98999.03;;;9.45;100.00
12664;BME280;6396;58.490;15.528;2023-04-25T13:03:45;99211.44;;;10.77;100.00
12664;BME280;6396;58.490;15.528;2023-04-25T13:06:13;98875.38;;;8.70;100.00
12664;BME280;6396;58.490;15.528;2023-04-25T13:08:41;98825.81;;;8.24;100.00
12664;BME280;6396;58.490;15.528;2023-04-25T13:11:08;99201.41;;;10.84;100.00
12664;BME280;6396;58.490;15.528;2023-04-25T13:13:37;99066.09;;;9.93;100.00
12664;BME280;6396;58.490;15.528;2023-04-25T13:16:05;98828.09;;;8.69;100.00
12664;BME280;6396;58.490;15.528;2023-04-25T13:18:46;98568.28;;;7.13;100.00